sensor_id;sensor_type;location;lat;lon;timestamp;P1;durP1;ratioP1;P2;durP2;ratioP2
55537;SDS011;41383;51.418;7.286;2023-06-24T00:02:04;9.80;;;5.80;;
55537;SDS011;41383;51.418;7.286;2023-06-24T00:04:30;9.13;;;4.75;;
55537;SDS011;41383;51.418;7.286;2023-06-24T00:06:56;9.90;;;5.90;;
55537;SDS011;41383;51.418;7.286;2023-06-24T00:09:24;8.65;;;5.18;;
55537;SDS011;41383;51.418;7.286;2023-06-24T00:11:52;8.80;;;5.95;;
55537;SDS011;41383;51.418;7.286;2023-06-24T00:14:17;7.97;;;5.07;;
55537;SDS011;41383;51.418;7.286;2023-06-24T00:16:42;10.63;;;6.13;;
55537;SDS011;41383;51.418;7.286;2023-06-24T00:19:08;10.35;;;4.88;;
55537;SDS011;41383;51.418;7.286;2023-06-24T00:21:33;9.20;;;4.85;;
55537;SDS011;41383;51.418;7.286;2023-06-24T00:23:59;8.43;;;4.68;;
55537;SDS011;41383;51.418;7.286;2023-06-24T00:26:26;8.23;;;5.93;;
55537;SDS011;41383;51.418;7.286;2023-06-24T00:28:52;6.97;;;4.17;;
55537;SDS011;41383;51.418;7.286;2023-06-24T00:31:17;10.05;;;4.00;;
55537;SDS011;41383;51.418;7.286;2023-06-24T00:33:44;7.75;;;3.90;;
55537;SDS011;41383;51.418;7.286;2023-06-24T00:36:09;9.73;;;4.50;;
55537;SDS011;41383;51.418;7.286;2023-06-24T00:38:36;8.73;;;4.32;;
55537;SDS011;41383;51.418;7.286;2023-06-24T00:41:02;9.07;;;4.63;;
55537;SDS011;41383;51.418;7.286;2023-06-24T00:43:28;7.25;;;4.28;;
55537;SDS011;41383;51.418;7.286;2023-06-24T00:45:54;7.78;;;5.18;;
55537;SDS011;41383;51.418;7.286;2023-06-24T00:48:20;8.30;;;4.05;;
55537;SDS011;41383;51.418;7.286;2023-06-24T00:50:46;9.70;;;5.55;;
55537;SDS011;41383;51.418;7.286;2023-06-24T00:53:14;12.02;;;5.05;;
55537;SDS011;41383;51.418;7.286;2023-06-24T00:55:43;8.02;;;4.35;;
55537;SDS011;41383;51.418;7.286;2023-06-24T00:58:10;7.82;;;5.13;;
55537;SDS011;41383;51.418;7.286;2023-06-24T01:00:40;11.50;;;5.00;;
55537;SDS011;41383;51.418;7.286;2023-06-24T01:03:06;9.82;;;4.60;;
55537;SDS011;41383;51.418;7.286;2023-06-24T01:05:33;9.43;;;5.05;;
55537;SDS011;41383;51.418;7.286;2023-06-24T01:08:01;7.72;;;4.72;;
55537;SDS011;41383;51.418;7.286;2023-06-24T01:10:27;9.38;;;4.97;;
55537;SDS011;41383;51.418;7.286;2023-06-24T01:12:52;8.43;;;5.33;;
55537;SDS011;41383;51.418;7.286;2023-06-24T01:15:18;9.20;;;4.97;;
55537;SDS011;41383;51.418;7.286;2023-06-24T01:20:39;7.93;;;4.43;;
55537;SDS011;41383;51.418;7.286;2023-06-24T01:23:18;8.18;;;4.43;;
55537;SDS011;41383;51.418;7.286;2023-06-24T01:31:37;7.90;;;3.72;;
55537;SDS011;41383;51.418;7.286;2023-06-24T01:36:47;8.00;;;3.95;;
55537;SDS011;41383;51.418;7.286;2023-06-24T01:39:33;8.82;;;4.32;;
55537;SDS011;41383;51.418;7.286;2023-06-24T01:42:06;7.25;;;3.83;;
55537;SDS011;41383;51.418;7.286;2023-06-24T01:44:34;8.68;;;4.10;;
55537;SDS011;41383;51.418;7.286;2023-06-24T01:47:00;11.05;;;5.32;;
55537;SDS011;41383;51.418;7.286;2023-06-24T01:49:29;8.27;;;4.38;;
55537;SDS011;41383;51.418;7.286;2023-06-24T01:51:58;9.05;;;6.13;;
55537;SDS011;41383;51.418;7.286;2023-06-24T01:54:25;8.73;;;4.88;;
55537;SDS011;41383;51.418;7.286;2023-06-24T01:56:53;13.38;;;4.47;;
55537;SDS011;41383;51.418;7.286;2023-06-24T01:59:20;8.60;;;4.50;;
55537;SDS011;41383;51.418;7.286;2023-06-24T02:01:47;7.95;;;5.05;;
55537;SDS011;41383;51.418;7.286;2023-06-24T02:04:13;8.45;;;5.28;;
55537;SDS011;41383;51.418;7.286;2023-06-24T02:06:40;7.88;;;4.40;;
55537;SDS011;41383;51.418;7.286;2023-06-24T02:09:07;10.60;;;5.30;;
55537;SDS011;41383;51.418;7.286;2023-06-24T02:11:35;16.13;;;5.95;;
55537;SDS011;41383;51.418;7.286;2023-06-24T02:14:01;11.48;;;5.55;;
55537;SDS011;41383;51.418;7.286;2023-06-24T02:16:29;9.15;;;4.47;;
55537;SDS011;41383;51.418;7.286;2023-06-24T02:18:56;7.70;;;5.07;;
55537;SDS011;41383;51.418;7.286;2023-06-24T02:21:22;8.13;;;5.07;;
55537;SDS011;41383;51.418;7.286;2023-06-24T02:23:49;12.63;;;6.68;;
55537;SDS011;41383;51.418;7.286;2023-06-24T02:26:15;9.40;;;4.15;;
55537;SDS011;41383;51.418;7.286;2023-06-24T02:28:41;10.90;;;5.20;;
55537;SDS011;41383;51.418;7.286;2023-06-24T02:31:08;7.57;;;4.40;;
55537;SDS011;41383;51.418;7.286;2023-06-24T02:33:35;7.82;;;4.25;;
55537;SDS011;41383;51.418;7.286;2023-06-24T02:36:01;10.68;;;4.70;;
55537;SDS011;41383;51.418;7.286;2023-06-24T02:38:26;12.52;;;4.93;;
55537;SDS011;41383;51.418;7.286;2023-06-24T02:40:51;8.52;;;4.57;;
55537;SDS011;41383;51.418;7.286;2023-06-24T02:43:17;11.00;;;5.82;;
55537;SDS011;41383;51.418;7.286;2023-06-24T02:45:42;15.30;;;7.50;;
55537;SDS011;41383;51.418;7.286;2023-06-24T02:48:10;9.05;;;5.70;;
55537;SDS011;41383;51.418;7.286;2023-06-24T02:50:36;10.70;;;4.55;;
55537;SDS011;41383;51.418;7.286;2023-06-24T02:53:03;9.15;;;5.68;;
55537;SDS011;41383;51.418;7.286;2023-06-24T02:55:29;8.45;;;5.38;;
55537;SDS011;41383;51.418;7.286;2023-06-24T02:57:55;11.50;;;5.80;;
55537;SDS011;41383;51.418;7.286;2023-06-24T03:00:22;11.10;;;5.78;;
55537;SDS011;41383;51.418;7.286;2023-06-24T03:02:48;10.13;;;5.45;;
55537;SDS011;41383;51.418;7.286;2023-06-24T03:05:15;10.45;;;5.53;;
55537;SDS011;41383;51.418;7.286;2023-06-24T03:07:41;10.38;;;6.05;;
55537;SDS011;41383;51.418;7.286;2023-06-24T03:10:07;8.75;;;5.05;;
55537;SDS011;41383;51.418;7.286;2023-06-24T03:12:33;11.32;;;5.53;;
55537;SDS011;41383;51.418;7.286;2023-06-24T03:14:58;8.05;;;4.82;;
55537;SDS011;41383;51.418;7.286;2023-06-24T03:17:25;8.82;;;5.80;;
55537;SDS011;41383;51.418;7.286;2023-06-24T03:19:51;7.97;;;4.38;;
55537;SDS011;41383;51.418;7.286;2023-06-24T03:22:16;8.83;;;5.27;;
55537;SDS011;41383;51.418;7.286;2023-06-24T03:24:44;10.55;;;5.70;;
55537;SDS011;41383;51.418;7.286;2023-06-24T03:27:10;8.50;;;5.53;;
55537;SDS011;41383;51.418;7.286;2023-06-24T03:29:35;10.40;;;4.97;;
55537;SDS011;41383;51.418;7.286;2023-06-24T03:32:00;13.02;;;6.18;;
55537;SDS011;41383;51.418;7.286;2023-06-24T03:34:26;8.95;;;4.90;;
55537;SDS011;41383;51.418;7.286;2023-06-24T03:36:52;8.75;;;5.25;;
55537;SDS011;41383;51.418;7.286;2023-06-24T03:39:19;10.20;;;5.88;;
55537;SDS011;41383;51.418;7.286;2023-06-24T03:41:45;8.40;;;4.55;;
55537;SDS011;41383;51.418;7.286;2023-06-24T03:44:10;7.57;;;4.37;;
55537;SDS011;41383;51.418;7.286;2023-06-24T03:46:35;8.37;;;5.13;;
55537;SDS011;41383;51.418;7.286;2023-06-24T03:49:00;9.90;;;4.80;;
55537;SDS011;41383;51.418;7.286;2023-06-24T03:51:26;7.97;;;4.70;;
55537;SDS011;41383;51.418;7.286;2023-06-24T03:53:51;12.80;;;5.18;;
55537;SDS011;41383;51.418;7.286;2023-06-24T03:56:16;9.27;;;4.75;;
55537;SDS011;41383;51.418;7.286;2023-06-24T03:58:42;11.80;;;5.25;;
55537;SDS011;41383;51.418;7.286;2023-06-24T04:01:07;7.60;;;3.70;;
55537;SDS011;41383;51.418;7.286;2023-06-24T04:03:34;10.10;;;4.78;;
55537;SDS011;41383;51.418;7.286;2023-06-24T04:05:59;11.35;;;5.45;;
55537;SDS011;41383;51.418;7.286;2023-06-24T04:08:26;10.45;;;3.95;;
55537;SDS011;41383;51.418;7.286;2023-06-24T04:10:54;10.88;;;4.65;;
55537;SDS011;41383;51.418;7.286;2023-06-24T04:13:19;8.20;;;4.25;;
55537;SDS011;41383;51.418;7.286;2023-06-24T04:15:45;10.53;;;5.30;;
55537;SDS011;41383;51.418;7.286;2023-06-24T04:18:10;9.43;;;6.07;;
55537;SDS011;41383;51.418;7.286;2023-06-24T04:20:35;8.13;;;4.53;;
55537;SDS011;41383;51.418;7.286;2023-06-24T04:23:00;8.75;;;4.78;;
55537;SDS011;41383;51.418;7.286;2023-06-24T04:25:26;7.50;;;4.30;;
55537;SDS011;41383;51.418;7.286;2023-06-24T04:27:51;12.55;;;6.55;;
55537;SDS011;41383;51.418;7.286;2023-06-24T04:30:16;7.80;;;4.33;;
55537;SDS011;41383;51.418;7.286;2023-06-24T04:32:42;8.25;;;4.68;;
55537;SDS011;41383;51.418;7.286;2023-06-24T04:35:07;9.95;;;4.30;;
55537;SDS011;41383;51.418;7.286;2023-06-24T04:37:33;9.45;;;4.50;;
55537;SDS011;41383;51.418;7.286;2023-06-24T04:39:58;8.98;;;4.10;;
55537;SDS011;41383;51.418;7.286;2023-06-24T04:42:24;8.20;;;4.53;;
55537;SDS011;41383;51.418;7.286;2023-06-24T04:44:49;7.63;;;4.22;;
55537;SDS011;41383;51.418;7.286;2023-06-24T04:47:16;6.32;;;3.60;;
55537;SDS011;41383;51.418;7.286;2023-06-24T04:49:44;8.75;;;4.13;;
55537;SDS011;41383;51.418;7.286;2023-06-24T04:52:10;7.20;;;4.17;;
55537;SDS011;41383;51.418;7.286;2023-06-24T04:54:36;5.47;;;3.05;;
55537;SDS011;41383;51.418;7.286;2023-06-24T04:57:01;7.47;;;3.43;;
55537;SDS011;41383;51.418;7.286;2023-06-24T04:59:26;6.03;;;3.55;;
55537;SDS011;41383;51.418;7.286;2023-06-24T05:01:52;7.80;;;4.33;;
55537;SDS011;41383;51.418;7.286;2023-06-24T05:04:17;7.80;;;4.70;;
55537;SDS011;41383;51.418;7.286;2023-06-24T05:06:42;8.40;;;4.03;;
55537;SDS011;41383;51.418;7.286;2023-06-24T05:09:08;10.02;;;5.35;;
55537;SDS011;41383;51.418;7.286;2023-06-24T05:11:35;6.22;;;3.35;;
55537;SDS011;41383;51.418;7.286;2023-06-24T05:14:00;7.05;;;3.95;;
55537;SDS011;41383;51.418;7.286;2023-06-24T05:16:26;6.97;;;3.00;;
55537;SDS011;41383;51.418;7.286;2023-06-24T05:18:51;8.10;;;4.33;;
55537;SDS011;41383;51.418;7.286;2023-06-24T05:21:16;9.63;;;3.93;;
55537;SDS011;41383;51.418;7.286;2023-06-24T05:23:41;6.38;;;3.72;;
55537;SDS011;41383;51.418;7.286;2023-06-24T05:26:07;7.17;;;3.53;;
55537;SDS011;41383;51.418;7.286;2023-06-24T05:28:32;9.00;;;3.73;;
55537;SDS011;41383;51.418;7.286;2023-06-24T05:30:57;11.20;;;3.97;;
55537;SDS011;41383;51.418;7.286;2023-06-24T05:33:23;6.05;;;3.28;;
55537;SDS011;41383;51.418;7.286;2023-06-24T05:35:48;5.80;;;3.37;;
55537;SDS011;41383;51.418;7.286;2023-06-24T05:38:14;11.70;;;3.95;;
55537;SDS011;41383;51.418;7.286;2023-06-24T05:40:39;7.57;;;3.83;;
55537;SDS011;41383;51.418;7.286;2023-06-24T05:43:05;9.67;;;4.27;;
55537;SDS011;41383;51.418;7.286;2023-06-24T05:45:30;6.90;;;3.20;;
55537;SDS011;41383;51.418;7.286;2023-06-24T05:47:55;9.00;;;4.83;;
55537;SDS011;41383;51.418;7.286;2023-06-24T05:50:20;13.23;;;3.40;;
55537;SDS011;41383;51.418;7.286;2023-06-24T05:52:46;7.25;;;3.78;;
55537;SDS011;41383;51.418;7.286;2023-06-24T05:55:11;5.87;;;3.20;;
55537;SDS011;41383;51.418;7.286;2023-06-24T05:57:38;9.32;;;4.60;;
55537;SDS011;41383;51.418;7.286;2023-06-24T06:00:04;6.90;;;3.90;;
55537;SDS011;41383;51.418;7.286;2023-06-24T06:02:31;6.63;;;3.65;;
55537;SDS011;41383;51.418;7.286;2023-06-24T06:04:57;8.67;;;3.83;;
55537;SDS011;41383;51.418;7.286;2023-06-24T06:07:22;7.07;;;3.43;;
55537;SDS011;41383;51.418;7.286;2023-06-24T06:09:47;7.97;;;3.67;;
55537;SDS011;41383;51.418;7.286;2023-06-24T06:12:12;6.07;;;3.23;;
55537;SDS011;41383;51.418;7.286;2023-06-24T06:14:38;7.97;;;3.87;;
55537;SDS011;41383;51.418;7.286;2023-06-24T06:17:03;6.57;;;4.63;;
55537;SDS011;41383;51.418;7.286;2023-06-24T06:19:28;8.25;;;4.35;;
55537;SDS011;41383;51.418;7.286;2023-06-24T06:21:54;7.40;;;4.40;;
55537;SDS011;41383;51.418;7.286;2023-06-24T06:24:19;7.37;;;4.17;;
55537;SDS011;41383;51.418;7.286;2023-06-24T06:26:44;10.80;;;4.07;;
55537;SDS011;41383;51.418;7.286;2023-06-24T06:29:10;16.38;;;4.38;;
55537;SDS011;41383;51.418;7.286;2023-06-24T06:31:36;6.90;;;3.60;;
55537;SDS011;41383;51.418;7.286;2023-06-24T06:34:01;14.10;;;4.80;;
55537;SDS011;41383;51.418;7.286;2023-06-24T06:36:27;11.13;;;4.90;;
55537;SDS011;41383;51.418;7.286;2023-06-24T06:38:53;8.70;;;3.93;;
55537;SDS011;41383;51.418;7.286;2023-06-24T06:41:18;9.18;;;4.93;;
55537;SDS011;41383;51.418;7.286;2023-06-24T06:43:49;8.05;;;4.20;;
55537;SDS011;41383;51.418;7.286;2023-06-24T06:46:14;10.15;;;4.75;;
55537;SDS011;41383;51.418;7.286;2023-06-24T06:48:39;10.83;;;4.83;;
55537;SDS011;41383;51.418;7.286;2023-06-24T06:51:05;8.03;;;4.40;;
55537;SDS011;41383;51.418;7.286;2023-06-24T06:53:30;11.10;;;5.50;;
55537;SDS011;41383;51.418;7.286;2023-06-24T06:55:55;10.07;;;6.13;;
55537;SDS011;41383;51.418;7.286;2023-06-24T06:58:20;6.93;;;4.10;;
55537;SDS011;41383;51.418;7.286;2023-06-24T07:00:46;9.20;;;5.83;;
55537;SDS011;41383;51.418;7.286;2023-06-24T07:03:11;10.05;;;6.75;;
55537;SDS011;41383;51.418;7.286;2023-06-24T07:05:37;9.82;;;6.03;;
55537;SDS011;41383;51.418;7.286;2023-06-24T07:08:03;16.33;;;6.28;;
55537;SDS011;41383;51.418;7.286;2023-06-24T07:10:30;10.25;;;6.28;;
55537;SDS011;41383;51.418;7.286;2023-06-24T07:12:55;9.63;;;4.87;;
55537;SDS011;41383;51.418;7.286;2023-06-24T07:15:23;11.88;;;6.50;;
55537;SDS011;41383;51.418;7.286;2023-06-24T07:17:51;10.98;;;5.95;;
55537;SDS011;41383;51.418;7.286;2023-06-24T07:20:18;9.85;;;6.00;;
55537;SDS011;41383;51.418;7.286;2023-06-24T07:22:43;10.73;;;6.30;;
55537;SDS011;41383;51.418;7.286;2023-06-24T07:25:09;11.97;;;6.27;;
55537;SDS011;41383;51.418;7.286;2023-06-24T07:27:34;11.10;;;6.65;;
55537;SDS011;41383;51.418;7.286;2023-06-24T07:29:59;9.00;;;5.17;;
55537;SDS011;41383;51.418;7.286;2023-06-24T07:32:24;8.67;;;5.00;;
55537;SDS011;41383;51.418;7.286;2023-06-24T07:34:50;27.30;;;6.50;;
55537;SDS011;41383;51.418;7.286;2023-06-24T07:37:15;13.50;;;8.17;;
55537;SDS011;41383;51.418;7.286;2023-06-24T07:39:40;11.73;;;6.03;;
55537;SDS011;41383;51.418;7.286;2023-06-24T07:42:06;8.37;;;4.87;;
55537;SDS011;41383;51.418;7.286;2023-06-24T07:44:32;10.07;;;6.03;;
55537;SDS011;41383;51.418;7.286;2023-06-24T07:46:57;11.40;;;5.73;;
55537;SDS011;41383;51.418;7.286;2023-06-24T07:49:23;10.63;;;5.68;;
55537;SDS011;41383;51.418;7.286;2023-06-24T07:51:48;12.07;;;5.87;;
55537;SDS011;41383;51.418;7.286;2023-06-24T07:54:14;9.43;;;5.53;;
55537;SDS011;41383;51.418;7.286;2023-06-24T07:56:40;15.15;;;4.55;;
55537;SDS011;41383;51.418;7.286;2023-06-24T07:59:05;9.55;;;5.32;;
55537;SDS011;41383;51.418;7.286;2023-06-24T08:01:30;10.75;;;5.75;;
55537;SDS011;41383;51.418;7.286;2023-06-24T08:03:56;13.97;;;8.50;;
55537;SDS011;41383;51.418;7.286;2023-06-24T08:06:21;10.73;;;6.78;;
55537;SDS011;41383;51.418;7.286;2023-06-24T08:08:46;11.23;;;7.32;;
55537;SDS011;41383;51.418;7.286;2023-06-24T08:11:12;10.98;;;6.20;;
55537;SDS011;41383;51.418;7.286;2023-06-24T08:13:38;13.40;;;6.55;;
55537;SDS011;41383;51.418;7.286;2023-06-24T08:16:03;14.93;;;8.20;;
55537;SDS011;41383;51.418;7.286;2023-06-24T08:18:28;11.98;;;7.30;;
55537;SDS011;41383;51.418;7.286;2023-06-24T08:20:54;11.30;;;7.00;;
55537;SDS011;41383;51.418;7.286;2023-06-24T08:23:19;18.90;;;7.50;;
55537;SDS011;41383;51.418;7.286;2023-06-24T08:25:44;19.03;;;8.77;;
55537;SDS011;41383;51.418;7.286;2023-06-24T08:28:10;13.93;;;7.73;;
55537;SDS011;41383;51.418;7.286;2023-06-24T08:30:36;15.77;;;8.77;;
55537;SDS011;41383;51.418;7.286;2023-06-24T08:33:01;17.20;;;10.43;;
55537;SDS011;41383;51.418;7.286;2023-06-24T08:35:26;13.63;;;8.70;;
55537;SDS011;41383;51.418;7.286;2023-06-24T08:37:51;14.47;;;9.33;;
55537;SDS011;41383;51.418;7.286;2023-06-24T08:40:17;16.13;;;8.77;;
55537;SDS011;41383;51.418;7.286;2023-06-24T08:42:43;26.30;;;11.25;;
55537;SDS011;41383;51.418;7.286;2023-06-24T08:45:08;15.07;;;10.48;;
55537;SDS011;41383;51.418;7.286;2023-06-24T08:47:34;14.55;;;9.82;;
55537;SDS011;41383;51.418;7.286;2023-06-24T08:50:04;15.27;;;9.57;;
55537;SDS011;41383;51.418;7.286;2023-06-24T08:52:34;17.70;;;9.77;;
55537;SDS011;41383;51.418;7.286;2023-06-24T08:55:01;17.90;;;10.65;;
55537;SDS011;41383;51.418;7.286;2023-06-24T08:57:27;13.85;;;8.75;;
55537;SDS011;41383;51.418;7.286;2023-06-24T08:59:53;14.13;;;8.25;;
55537;SDS011;41383;51.418;7.286;2023-06-24T09:02:18;10.30;;;5.88;;
55537;SDS011;41383;51.418;7.286;2023-06-24T09:04:43;9.93;;;5.82;;
55537;SDS011;41383;51.418;7.286;2023-06-24T09:07:09;11.13;;;6.70;;
55537;SDS011;41383;51.418;7.286;2023-06-24T09:09:41;12.68;;;7.82;;
55537;SDS011;41383;51.418;7.286;2023-06-24T09:12:10;12.50;;;8.10;;
55537;SDS011;41383;51.418;7.286;2023-06-24T09:14:37;9.48;;;6.60;;
55537;SDS011;41383;51.418;7.286;2023-06-24T09:17:03;11.25;;;6.72;;
55537;SDS011;41383;51.418;7.286;2023-06-24T09:19:31;11.73;;;6.03;;
55537;SDS011;41383;51.418;7.286;2023-06-24T09:22:01;11.27;;;5.93;;
55537;SDS011;41383;51.418;7.286;2023-06-24T09:24:30;9.38;;;5.03;;
55537;SDS011;41383;51.418;7.286;2023-06-24T09:26:56;9.35;;;5.80;;
55537;SDS011;41383;51.418;7.286;2023-06-24T09:29:27;9.65;;;5.55;;
55537;SDS011;41383;51.418;7.286;2023-06-24T09:31:56;10.38;;;5.75;;
55537;SDS011;41383;51.418;7.286;2023-06-24T09:34:23;11.15;;;4.90;;
55537;SDS011;41383;51.418;7.286;2023-06-24T09:36:51;9.27;;;5.47;;
55537;SDS011;41383;51.418;7.286;2023-06-24T09:39:17;14.48;;;5.75;;
55537;SDS011;41383;51.418;7.286;2023-06-24T09:41:43;11.30;;;5.00;;
55537;SDS011;41383;51.418;7.286;2023-06-24T09:44:08;12.50;;;5.40;;
55537;SDS011;41383;51.418;7.286;2023-06-24T09:46:36;9.23;;;5.93;;
55537;SDS011;41383;51.418;7.286;2023-06-24T09:49:05;11.45;;;5.70;;
55537;SDS011;41383;51.418;7.286;2023-06-24T09:51:32;10.63;;;5.30;;
55537;SDS011;41383;51.418;7.286;2023-06-24T09:54:01;8.63;;;4.80;;
55537;SDS011;41383;51.418;7.286;2023-06-24T09:56:30;9.18;;;5.35;;
55537;SDS011;41383;51.418;7.286;2023-06-24T09:58:56;16.27;;;5.05;;
55537;SDS011;41383;51.418;7.286;2023-06-24T10:01:22;10.48;;;5.68;;
55537;SDS011;41383;51.418;7.286;2023-06-24T10:03:47;533.72;;;497.60;;
55537;SDS011;41383;51.418;7.286;2023-06-24T10:06:13;867.13;;;798.63;;
55537;SDS011;41383;51.418;7.286;2023-06-24T10:08:39;893.08;;;821.17;;
55537;SDS011;41383;51.418;7.286;2023-06-24T10:11:04;1092.82;;;992.45;;
55537;SDS011;41383;51.418;7.286;2023-06-24T10:13:29;191.68;;;171.65;;
55537;SDS011;41383;51.418;7.286;2023-06-24T10:15:55;140.75;;;128.50;;
55537;SDS011;41383;51.418;7.286;2023-06-24T10:20:56;406.25;;;374.38;;
55537;SDS011;41383;51.418;7.286;2023-06-24T10:23:21;243.13;;;222.52;;
55537;SDS011;41383;51.418;7.286;2023-06-24T10:25:47;348.13;;;324.73;;
55537;SDS011;41383;51.418;7.286;2023-06-24T10:28:13;116.97;;;105.50;;
55537;SDS011;41383;51.418;7.286;2023-06-24T10:30:38;70.43;;;47.45;;
55537;SDS011;41383;51.418;7.286;2023-06-24T10:33:03;47.57;;;18.97;;
55537;SDS011;41383;51.418;7.286;2023-06-24T10:35:28;8.00;;;4.80;;
55537;SDS011;41383;51.418;7.286;2023-06-24T10:38:00;14.32;;;5.32;;
55537;SDS011;41383;51.418;7.286;2023-06-24T10:40:35;9.48;;;4.53;;
55537;SDS011;41383;51.418;7.286;2023-06-24T10:43:24;9.90;;;4.40;;
55537;SDS011;41383;51.418;7.286;2023-06-24T10:45:50;17.45;;;5.03;;
55537;SDS011;41383;51.418;7.286;2023-06-24T10:48:17;10.65;;;4.53;;
55537;SDS011;41383;51.418;7.286;2023-06-24T10:50:44;7.35;;;3.85;;
55537;SDS011;41383;51.418;7.286;2023-06-24T10:53:10;7.60;;;3.90;;
55537;SDS011;41383;51.418;7.286;2023-06-24T10:55:37;12.27;;;5.65;;
55537;SDS011;41383;51.418;7.286;2023-06-24T10:58:12;10.07;;;5.67;;
55537;SDS011;41383;51.418;7.286;2023-06-24T11:00:39;11.63;;;5.22;;
55537;SDS011;41383;51.418;7.286;2023-06-24T11:03:08;10.43;;;5.57;;
55537;SDS011;41383;51.418;7.286;2023-06-24T11:05:34;8.30;;;4.70;;
55537;SDS011;41383;51.418;7.286;2023-06-24T11:07:59;15.50;;;6.80;;
55537;SDS011;41383;51.418;7.286;2023-06-24T11:10:24;7.43;;;3.70;;
55537;SDS011;41383;51.418;7.286;2023-06-24T11:12:50;7.10;;;3.85;;
55537;SDS011;41383;51.418;7.286;2023-06-24T11:15:16;6.03;;;3.85;;
55537;SDS011;41383;51.418;7.286;2023-06-24T11:17:41;8.73;;;4.90;;
55537;SDS011;41383;51.418;7.286;2023-06-24T11:20:11;11.52;;;4.50;;
55537;SDS011;41383;51.418;7.286;2023-06-24T11:22:39;7.43;;;3.97;;
55537;SDS011;41383;51.418;7.286;2023-06-24T11:25:05;8.10;;;3.95;;
55537;SDS011;41383;51.418;7.286;2023-06-24T11:27:31;7.75;;;4.00;;
55537;SDS011;41383;51.418;7.286;2023-06-24T11:29:57;9.70;;;5.85;;
55537;SDS011;41383;51.418;7.286;2023-06-24T11:32:24;7.72;;;3.63;;
55537;SDS011;41383;51.418;7.286;2023-06-24T11:34:50;12.55;;;3.85;;
55537;SDS011;41383;51.418;7.286;2023-06-24T11:37:16;9.52;;;4.70;;
55537;SDS011;41383;51.418;7.286;2023-06-24T11:39:43;9.07;;;3.63;;
55537;SDS011;41383;51.418;7.286;2023-06-24T11:42:10;13.02;;;3.58;;
55537;SDS011;41383;51.418;7.286;2023-06-24T11:44:36;9.80;;;4.20;;
55537;SDS011;41383;51.418;7.286;2023-06-24T11:47:08;6.80;;;3.17;;
55537;SDS011;41383;51.418;7.286;2023-06-24T11:49:54;8.43;;;3.60;;
55537;SDS011;41383;51.418;7.286;2023-06-24T11:55:01;7.18;;;3.50;;
55537;SDS011;41383;51.418;7.286;2023-06-24T12:00:19;7.97;;;4.35;;
55537;SDS011;41383;51.418;7.286;2023-06-24T12:02:55;8.48;;;4.68;;
55537;SDS011;41383;51.418;7.286;2023-06-24T12:05:31;5.10;;;3.05;;
55537;SDS011;41383;51.418;7.286;2023-06-24T12:07:59;9.68;;;4.82;;
55537;SDS011;41383;51.418;7.286;2023-06-24T12:10:30;8.00;;;3.75;;
55537;SDS011;41383;51.418;7.286;2023-06-24T12:12:58;7.18;;;3.53;;
55537;SDS011;41383;51.418;7.286;2023-06-24T12:15:23;6.93;;;2.83;;
55537;SDS011;41383;51.418;7.286;2023-06-24T12:17:49;6.05;;;3.28;;
55537;SDS011;41383;51.418;7.286;2023-06-24T12:20:14;7.97;;;3.70;;
55537;SDS011;41383;51.418;7.286;2023-06-24T12:22:40;7.05;;;3.03;;
55537;SDS011;41383;51.418;7.286;2023-06-24T12:25:07;5.88;;;3.42;;
55537;SDS011;41383;51.418;7.286;2023-06-24T12:27:33;12.30;;;4.05;;
55537;SDS011;41383;51.418;7.286;2023-06-24T12:29:58;5.47;;;3.40;;
55537;SDS011;41383;51.418;7.286;2023-06-24T12:32:24;8.23;;;3.83;;
55537;SDS011;41383;51.418;7.286;2023-06-24T12:34:49;5.97;;;2.90;;
55537;SDS011;41383;51.418;7.286;2023-06-24T12:37:14;7.17;;;3.07;;
55537;SDS011;41383;51.418;7.286;2023-06-24T12:39:40;9.77;;;3.27;;
55537;SDS011;41383;51.418;7.286;2023-06-24T12:42:05;5.80;;;3.43;;
55537;SDS011;41383;51.418;7.286;2023-06-24T12:44:31;6.90;;;3.28;;
55537;SDS011;41383;51.418;7.286;2023-06-24T12:46:56;8.80;;;2.83;;
55537;SDS011;41383;51.418;7.286;2023-06-24T12:49:22;5.73;;;3.03;;
55537;SDS011;41383;51.418;7.286;2023-06-24T12:51:47;5.50;;;3.20;;
55537;SDS011;41383;51.418;7.286;2023-06-24T12:54:12;5.77;;;3.00;;
55537;SDS011;41383;51.418;7.286;2023-06-24T12:56:37;9.20;;;2.67;;
55537;SDS011;41383;51.418;7.286;2023-06-24T12:59:03;5.63;;;2.80;;
55537;SDS011;41383;51.418;7.286;2023-06-24T13:01:28;9.97;;;3.43;;
55537;SDS011;41383;51.418;7.286;2023-06-24T13:03:53;4.10;;;2.40;;
55537;SDS011;41383;51.418;7.286;2023-06-24T13:06:18;5.90;;;2.70;;
55537;SDS011;41383;51.418;7.286;2023-06-24T13:08:44;4.47;;;2.67;;
55537;SDS011;41383;51.418;7.286;2023-06-24T13:11:09;9.03;;;2.50;;
55537;SDS011;41383;51.418;7.286;2023-06-24T13:13:34;10.02;;;2.65;;
55537;SDS011;41383;51.418;7.286;2023-06-24T13:16:00;8.13;;;3.22;;
55537;SDS011;41383;51.418;7.286;2023-06-24T13:18:26;5.50;;;2.90;;
55537;SDS011;41383;51.418;7.286;2023-06-24T13:20:51;8.87;;;3.23;;
55537;SDS011;41383;51.418;7.286;2023-06-24T13:23:16;6.07;;;3.00;;
55537;SDS011;41383;51.418;7.286;2023-06-24T13:25:41;5.80;;;3.37;;
55537;SDS011;41383;51.418;7.286;2023-06-24T13:28:07;5.27;;;2.80;;
55537;SDS011;41383;51.418;7.286;2023-06-24T13:30:32;6.70;;;3.60;;
55537;SDS011;41383;51.418;7.286;2023-06-24T13:32:57;5.30;;;3.20;;
55537;SDS011;41383;51.418;7.286;2023-06-24T13:35:22;5.27;;;2.83;;
55537;SDS011;41383;51.418;7.286;2023-06-24T13:37:48;7.90;;;3.03;;
55537;SDS011;41383;51.418;7.286;2023-06-24T13:40:13;6.13;;;3.73;;
55537;SDS011;41383;51.418;7.286;2023-06-24T13:42:38;5.77;;;3.20;;
55537;SDS011;41383;51.418;7.286;2023-06-24T13:45:03;6.57;;;3.60;;
55537;SDS011;41383;51.418;7.286;2023-06-24T13:47:29;7.97;;;2.85;;
55537;SDS011;41383;51.418;7.286;2023-06-24T13:49:54;10.05;;;4.13;;
55537;SDS011;41383;51.418;7.286;2023-06-24T13:52:20;7.75;;;3.25;;
55537;SDS011;41383;51.418;7.286;2023-06-24T13:54:46;5.80;;;2.58;;
55537;SDS011;41383;51.418;7.286;2023-06-24T13:57:11;5.97;;;2.58;;
55537;SDS011;41383;51.418;7.286;2023-06-24T13:59:37;5.38;;;2.75;;
55537;SDS011;41383;51.418;7.286;2023-06-24T14:02:02;6.53;;;3.40;;
55537;SDS011;41383;51.418;7.286;2023-06-24T14:04:28;5.53;;;2.47;;
55537;SDS011;41383;51.418;7.286;2023-06-24T14:06:53;6.57;;;3.30;;
55537;SDS011;41383;51.418;7.286;2023-06-24T14:09:18;5.17;;;3.07;;
55537;SDS011;41383;51.418;7.286;2023-06-24T14:11:44;5.15;;;3.22;;
55537;SDS011;41383;51.418;7.286;2023-06-24T14:14:09;6.35;;;3.67;;
55537;SDS011;41383;51.418;7.286;2023-06-24T14:16:34;7.30;;;3.35;;
55537;SDS011;41383;51.418;7.286;2023-06-24T14:19:00;5.43;;;3.17;;
55537;SDS011;41383;51.418;7.286;2023-06-24T14:21:25;8.67;;;3.43;;
55537;SDS011;41383;51.418;7.286;2023-06-24T14:23:50;5.75;;;3.15;;
55537;SDS011;41383;51.418;7.286;2023-06-24T14:26:15;6.35;;;3.55;;
55537;SDS011;41383;51.418;7.286;2023-06-24T14:28:41;6.07;;;2.93;;
55537;SDS011;41383;51.418;7.286;2023-06-24T14:31:06;7.90;;;3.20;;
55537;SDS011;41383;51.418;7.286;2023-06-24T14:33:31;6.10;;;3.40;;
55537;SDS011;41383;51.418;7.286;2023-06-24T14:35:57;6.37;;;3.23;;
55537;SDS011;41383;51.418;7.286;2023-06-24T14:38:22;15.98;;;4.22;;
55537;SDS011;41383;51.418;7.286;2023-06-24T14:40:47;6.20;;;3.50;;
55537;SDS011;41383;51.418;7.286;2023-06-24T14:43:12;4.82;;;2.50;;
55537;SDS011;41383;51.418;7.286;2023-06-24T14:45:38;5.00;;;2.97;;
55537;SDS011;41383;51.418;7.286;2023-06-24T14:48:03;5.10;;;2.67;;
55537;SDS011;41383;51.418;7.286;2023-06-24T14:50:28;4.67;;;2.80;;
55537;SDS011;41383;51.418;7.286;2023-06-24T14:52:54;5.83;;;2.73;;
55537;SDS011;41383;51.418;7.286;2023-06-24T14:55:19;5.60;;;2.55;;